Time;durP1;ratioP1;P1;durP2;ratioP2;P2;SDS_P1;SDS_P2;PMS_P1;PMS_P2;Temp;Humidity;BMP_temperature;BMP_pressure;BME280_temperature;BME280_humidity;BME280_pressure;Samples;Min_cycle;Max_cycle;Signal;HPM_P1;HPM_P2
2021/09/09 00:00:21;;;;;;;;;;;17.40;55.60;;;;;;5040994;28;87125;-45
2021/09/09 00:02:46;;;;;;;;;;;17.40;55.60;;;;;;5041739;28;88213;-45
2021/09/09 00:05:12;;;;;;;;;;;17.40;55.60;;;;;;5043065;28;88633;-45
2021/09/09 00:07:38;;;;;;;;;;;17.30;55.60;;;;;;5042760;28;87170;-45
2021/09/09 00:10:04;;;;;;;;;;;17.30;55.60;;;;;;5043287;28;87153;-45
2021/09/09 00:12:30;;;;;;;;;;;17.40;55.70;;;;;;5041632;28;90158;-45
2021/09/09 00:14:56;;;;;;;;;;;17.30;55.60;;;;;;5042480;28;87217;-45
2021/09/09 00:17:21;;;;;;;;;;;17.30;55.70;;;;;;5043032;28;87896;-45
2021/09/09 00:19:47;;;;;;;;;;;17.30;55.70;;;;;;5046136;28;87501;-45
2021/09/09 00:22:12;;;;;;;;;;;17.30;55.70;;;;;;5040166;28;87190;-45
2021/09/09 00:24:38;;;;;;;;;;;17.30;55.70;;;;;;5038377;28;88327;-45
2021/09/09 00:27:04;;;;;;;;;;;17.30;55.70;;;;;;5039075;28;88233;-45
2021/09/09 00:29:29;;;;;;;;;;;17.30;55.80;;;;;;5040757;28;87809;-45
2021/09/09 00:31:55;;;;;;;;;;;17.30;55.80;;;;;;5041553;28;88502;-44
2021/09/09 00:34:20;;;;;;;;;;;17.30;55.80;;;;;;5041669;28;87139;-45
2021/09/09 00:36:46;;;;;;;;;;;17.30;55.70;;;;;;5042742;28;87873;-45
2021/09/09 00:39:11;;;;;;;;;;;17.30;55.90;;;;;;5038979;28;87798;-45
2021/09/09 00:41:37;;;;;;;;;;;17.30;55.90;;;;;;5041620;28;87198;-45
2021/09/09 00:44:03;;;;;;;;;;;17.30;55.90;;;;;;5040062;28;87492;-45
2021/09/09 00:46:31;;;;;;;;;;;17.30;55.90;;;;;;5039848;28;87180;-46
2021/09/09 00:48:57;;;;;;;;;;;17.30;55.90;;;;;;5042370;28;89119;-45
2021/09/09 00:51:22;;;;;;;;;;;17.30;55.90;;;;;;5040517;28;89553;-45
2021/09/09 00:53:48;;;;;;;;;;;17.30;55.90;;;;;;5041313;28;88799;-45
2021/09/09 00:56:14;;;;;;;;;;;17.30;55.90;;;;;;5040002;28;88806;-45
2021/09/09 00:58:42;;;;;;;;;;;17.30;55.80;;;;;;5038817;28;89480;-45
2021/09/09 01:01:10;;;;;;;;;;;17.30;55.60;;;;;;5043276;27;87124;-45
2021/09/09 01:03:36;;;;;;;;;;;17.30;55.80;;;;;;5037229;28;88257;-45
2021/09/09 01:06:02;;;;;;;;;;;17.20;55.80;;;;;;5037976;28;87236;-45
2021/09/09 01:08:27;;;;;;;;;;;17.20;56.00;;;;;;5039373;28;88586;-45
2021/09/09 01:10:53;;;;;;;;;;;17.30;55.90;;;;;;5038681;28;87653;-45
2021/09/09 01:13:18;;;;;;;;;;;17.20;55.70;;;;;;5040121;28;87160;-45
2021/09/09 01:15:44;;;;;;;;;;;17.20;55.80;;;;;;5040838;28;88067;-45
2021/09/09 01:18:10;;;;;;;;;;;17.20;56.00;;;;;;5041655;28;88754;-45
2021/09/09 01:20:36;;;;;;;;;;;17.20;55.80;;;;;;5042095;28;88033;-45
2021/09/09 01:23:02;;;;;;;;;;;17.20;55.80;;;;;;5042207;28;88753;-45
2021/09/09 01:25:27;;;;;;;;;;;17.20;55.90;;;;;;5037452;28;87238;-45
2021/09/09 01:27:53;;;;;;;;;;;17.20;55.90;;;;;;5038781;28;87226;-45
2021/09/09 01:30:18;;;;;;;;;;;17.20;55.90;;;;;;5039612;28;88280;-45
2021/09/09 01:32:44;;;;;;;;;;;17.20;56.00;;;;;;5040107;28;86481;-45
2021/09/09 01:35:09;;;;;;;;;;;17.20;55.90;;;;;;5041106;28;87352;-45
2021/09/09 01:37:35;;;;;;;;;;;17.20;55.90;;;;;;5041253;28;88284;-45
2021/09/09 01:40:01;;;;;;;;;;;17.10;55.90;;;;;;5037447;28;89653;-45
2021/09/09 01:42:26;;;;;;;;;;;17.20;55.80;;;;;;5037486;28;89907;-45
2021/09/09 01:44:52;;;;;;;;;;;17.20;55.90;;;;;;5043651;28;88229;-45
2021/09/09 01:47:17;;;;;;;;;;;17.20;56.00;;;;;;5039148;28;89169;-45
2021/09/09 01:49:43;;;;;;;;;;;17.20;55.90;;;;;;5036678;28;89309;-45
2021/09/09 01:52:08;;;;;;;;;;;17.20;55.90;;;;;;5037942;28;87112;-45
2021/09/09 01:54:34;;;;;;;;;;;17.10;56.00;;;;;;5039090;28;87164;-45
2021/09/09 01:57:00;;;;;;;;;;;17.10;56.00;;;;;;5038462;28;88419;-45
2021/09/09 01:59:25;;;;;;;;;;;17.10;56.10;;;;;;5038612;28;87263;-45
2021/09/09 02:01:51;;;;;;;;;;;17.10;56.00;;;;;;5039972;28;87225;-45
2021/09/09 02:04:16;;;;;;;;;;;17.10;56.10;;;;;;5040236;28;89238;-45
2021/09/09 02:06:42;;;;;;;;;;;17.10;56.00;;;;;;5042547;28;87819;-45
2021/09/09 02:09:07;;;;;;;;;;;17.10;56.00;;;;;;5036502;28;88790;-45
2021/09/09 02:11:33;;;;;;;;;;;17.10;56.00;;;;;;5037373;27;87139;-45
2021/09/09 02:13:59;;;;;;;;;;;17.10;55.90;;;;;;5038199;28;87575;-45
2021/09/09 02:16:24;;;;;;;;;;;17.10;56.00;;;;;;5038143;28;87181;-45
2021/09/09 02:18:50;;;;;;;;;;;17.10;56.10;;;;;;5038263;28;87119;-45
2021/09/09 02:21:15;;;;;;;;;;;17.10;56.00;;;;;;5039892;28;87696;-45
2021/09/09 02:23:41;;;;;;;;;;;17.10;56.10;;;;;;5040409;28;87880;-45
2021/09/09 02:26:07;;;;;;;;;;;17.10;56.00;;;;;;5039482;28;88158;-45
2021/09/09 02:28:32;;;;;;;;;;;17.10;56.00;;;;;;5038938;28;89847;-45
2021/09/09 02:30:58;;;;;;;;;;;17.10;55.90;;;;;;5037164;28;87122;-45
2021/09/09 02:33:23;;;;;;;;;;;17.10;56.00;;;;;;5037909;28;87373;-44
2021/09/09 02:35:49;;;;;;;;;;;17.10;56.00;;;;;;5039132;28;88244;-45
2021/09/09 02:38:15;;;;;;;;;;;17.10;56.00;;;;;;5040665;28;87458;-44
2021/09/09 02:40:40;;;;;;;;;;;17.10;56.00;;;;;;5038941;28;89014;-45
2021/09/09 02:43:06;;;;;;;;;;;17.10;56.00;;;;;;5036453;28;88602;-45
2021/09/09 02:45:32;;;;;;;;;;;17.00;56.00;;;;;;5037511;28;86406;-45
2021/09/09 02:47:57;;;;;;;;;;;17.00;56.10;;;;;;5038002;28;87178;-45
2021/09/09 02:50:23;;;;;;;;;;;17.00;56.10;;;;;;5041824;28;88111;-45
2021/09/09 02:52:48;;;;;;;;;;;17.00;56.00;;;;;;5039643;28;88091;-45
2021/09/09 02:55:14;;;;;;;;;;;17.00;56.10;;;;;;5039161;28;88320;-45
2021/09/09 02:57:39;;;;;;;;;;;17.00;56.00;;;;;;5036077;28;88695;-45
2021/09/09 03:00:06;;;;;;;;;;;17.00;56.10;;;;;;5037187;28;87775;-45
2021/09/09 03:02:31;;;;;;;;;;;17.00;56.10;;;;;;5036373;28;89848;-44
2021/09/09 03:04:57;;;;;;;;;;;17.00;56.10;;;;;;5038199;28;87120;-45
2021/09/09 03:07:23;;;;;;;;;;;17.00;56.10;;;;;;5039176;28;88942;-44
2021/09/09 03:09:48;;;;;;;;;;;17.00;56.10;;;;;;5042632;28;86543;-45
2021/09/09 03:12:14;;;;;;;;;;;17.00;56.10;;;;;;5039147;28;87219;-45
2021/09/09 03:14:39;;;;;;;;;;;17.00;56.10;;;;;;5039969;28;87870;-45
2021/09/09 03:17:05;;;;;;;;;;;17.00;56.10;;;;;;5037624;28;89693;-45
2021/09/09 03:19:30;;;;;;;;;;;17.00;56.10;;;;;;5035615;28;91060;-45
2021/09/09 03:21:56;;;;;;;;;;;17.00;56.10;;;;;;5036384;28;88029;-45
2021/09/09 03:24:22;;;;;;;;;;;17.00;56.20;;;;;;5039728;28;87288;-45
2021/09/09 03:26:48;;;;;;;;;;;17.00;56.20;;;;;;5042586;28;87257;-44
2021/09/09 03:29:13;;;;;;;;;;;17.00;56.20;;;;;;5042686;28;89059;-45
2021/09/09 03:31:39;;;;;;;;;;;17.00;56.20;;;;;;5045982;28;88579;-45
2021/09/09 03:34:04;;;;;;;;;;;17.00;56.10;;;;;;5039531;28;89230;-45
2021/09/09 03:36:30;;;;;;;;;;;17.00;56.20;;;;;;5039984;28;87215;-45
2021/09/09 03:38:55;;;;;;;;;;;17.00;56.30;;;;;;5041033;28;88887;-46
2021/09/09 03:41:21;;;;;;;;;;;16.90;56.20;;;;;;5041359;28;90268;-45
2021/09/09 03:43:47;;;;;;;;;;;17.00;56.30;;;;;;5043228;28;87167;-45
2021/09/09 03:46:12;;;;;;;;;;;16.90;56.20;;;;;;5043634;28;87924;-45
2021/09/09 03:48:38;;;;;;;;;;;16.90;56.30;;;;;;5039451;28;88608;-45
2021/09/09 03:51:04;;;;;;;;;;;16.90;56.20;;;;;;5039494;28;87218;-45
2021/09/09 03:53:29;;;;;;;;;;;16.90;56.20;;;;;;5043317;28;87487;-45
2021/09/09 03:55:55;;;;;;;;;;;16.90;56.20;;;;;;5042007;28;87233;-45
2021/09/09 03:58:20;;;;;;;;;;;16.90;56.20;;;;;;5043530;28;87887;-45
2021/09/09 04:00:46;;;;;;;;;;;16.90;56.30;;;;;;5041107;28;88172;-45
2021/09/09 04:03:11;;;;;;;;;;;17.00;56.20;;;;;;5038763;28;87154;-44
2021/09/09 04:05:37;;;;;;;;;;;16.90;56.30;;;;;;5039329;28;88242;-46
2021/09/09 04:08:02;;;;;;;;;;;16.90;56.30;;;;;;5040527;28;89309;-46
2021/09/09 04:10:28;;;;;;;;;;;16.90;56.30;;;;;;5042242;28;87163;-45
2021/09/09 04:12:54;;;;;;;;;;;16.90;56.40;;;;;;5043103;28;88499;-45
2021/09/09 04:15:19;;;;;;;;;;;16.90;56.30;;;;;;5043145;28;89734;-45
2021/09/09 04:17:45;;;;;;;;;;;16.90;56.30;;;;;;5041406;28;88627;-45
2021/09/09 04:20:10;;;;;;;;;;;16.90;56.30;;;;;;5038936;28;88754;-45
2021/09/09 04:22:36;;;;;;;;;;;16.90;56.30;;;;;;5039650;28;88093;-45
2021/09/09 04:25:02;;;;;;;;;;;16.90;56.30;;;;;;5039268;28;87198;-45
2021/09/09 04:27:30;;;;;;;;;;;16.90;56.30;;;;;;5038648;28;87156;-45
2021/09/09 04:29:56;;;;;;;;;;;16.90;56.50;;;;;;5042042;28;88126;-45
2021/09/09 04:32:22;;;;;;;;;;;16.90;56.30;;;;;;5042204;28;88606;-45
2021/09/09 04:34:48;;;;;;;;;;;16.90;56.40;;;;;;5041607;27;89852;-45
2021/09/09 04:37:13;;;;;;;;;;;16.90;56.50;;;;;;5043114;28;88638;-45
2021/09/09 04:39:39;;;;;;;;;;;16.80;56.60;;;;;;5038042;28;87270;-45
2021/09/09 04:42:04;;;;;;;;;;;16.80;56.50;;;;;;5039483;28;87214;-44
2021/09/09 04:44:30;;;;;;;;;;;16.80;56.50;;;;;;5038899;28;88368;-46
2021/09/09 04:46:55;;;;;;;;;;;16.80;56.40;;;;;;5038567;28;88045;-45
2021/09/09 04:49:21;;;;;;;;;;;16.80;56.60;;;;;;5037650;28;87092;-45
2021/09/09 04:51:46;;;;;;;;;;;16.80;56.40;;;;;;5039368;28;88879;-45
2021/09/09 04:54:12;;;;;;;;;;;16.80;57.10;;;;;;5040230;28;90291;-44
2021/09/09 04:56:37;;;;;;;;;;;16.80;56.50;;;;;;5039392;28;88344;-44
2021/09/09 04:59:03;;;;;;;;;;;16.80;56.50;;;;;;5045040;28;88926;-45
2021/09/09 05:01:29;;;;;;;;;;;16.80;56.60;;;;;;5042403;28;87122;-45
2021/09/09 05:03:54;;;;;;;;;;;16.80;56.70;;;;;;5040926;28;87339;-45
2021/09/09 05:06:20;;;;;;;;;;;16.80;56.70;;;;;;5039845;28;89160;-44
2021/09/09 05:08:46;;;;;;;;;;;16.80;56.70;;;;;;5039029;28;87242;-45
2021/09/09 05:11:12;;;;;;;;;;;16.80;56.70;;;;;;5039561;28;87578;-45
2021/09/09 05:13:38;;;;;;;;;;;16.80;56.70;;;;;;5037933;28;89574;-45
2021/09/09 05:16:06;;;;;;;;;;;16.80;56.80;;;;;;5038689;28;88232;-46
2021/09/09 05:18:32;;;;;;;;;;;16.70;57.00;;;;;;5040770;28;89012;-45
2021/09/09 05:20:58;;;;;;;;;;;16.80;56.90;;;;;;5040384;28;87124;-44
2021/09/09 05:23:23;;;;;;;;;;;16.80;56.90;;;;;;5040892;28;87526;-45
2021/09/09 05:25:49;;;;;;;;;;;16.70;56.90;;;;;;5041058;28;88120;-45
2021/09/09 05:28:14;;;;;;;;;;;16.70;57.00;;;;;;5040586;28;87199;-45
2021/09/09 05:30:40;;;;;;;;;;;16.70;57.00;;;;;;5039920;28;87600;-44
2021/09/09 05:33:05;;;;;;;;;;;16.70;57.10;;;;;;5039178;28;88493;-45
2021/09/09 05:35:31;;;;;;;;;;;16.70;57.10;;;;;;5040197;28;86399;-44
2021/09/09 05:37:57;;;;;;;;;;;16.80;57.20;;;;;;5039511;28;87137;-44
2021/09/09 05:40:22;;;;;;;;;;;16.80;57.10;;;;;;5043372;28;88284;-44
2021/09/09 05:42:48;;;;;;;;;;;16.70;57.30;;;;;;5040628;28;88669;-44
2021/09/09 05:45:13;;;;;;;;;;;16.70;57.30;;;;;;5040070;28;89220;-45
2021/09/09 05:47:39;;;;;;;;;;;16.70;57.20;;;;;;5039519;27;87211;-44
2021/09/09 05:50:05;;;;;;;;;;;16.80;57.10;;;;;;5038889;28;87788;-44
2021/09/09 05:52:30;;;;;;;;;;;16.70;57.10;;;;;;5037038;28;91257;-44
2021/09/09 05:54:56;;;;;;;;;;;16.80;57.30;;;;;;5036786;28;88926;-45
2021/09/09 05:57:22;;;;;;;;;;;16.70;57.40;;;;;;5037364;28;89200;-45
2021/09/09 05:59:47;;;;;;;;;;;16.70;57.20;;;;;;5037470;28;87912;-45
2021/09/09 06:02:14;;;;;;;;;;;16.70;57.20;;;;;;5040619;28;88467;-45
2021/09/09 06:04:40;;;;;;;;;;;16.70;57.10;;;;;;5040360;28;88917;-45
2021/09/09 06:07:05;;;;;;;;;;;16.70;57.30;;;;;;5039395;28;88126;-45
2021/09/09 06:09:31;;;;;;;;;;;16.70;57.10;;;;;;5040645;28;88382;-44
2021/09/09 06:11:56;;;;;;;;;;;16.80;57.10;;;;;;5039739;28;88574;-45
2021/09/09 06:14:22;;;;;;;;;;;16.80;57.10;;;;;;5039368;28;87183;-45
2021/09/09 06:16:48;;;;;;;;;;;16.80;57.10;;;;;;5040099;28;87835;-45
2021/09/09 06:19:14;;;;;;;;;;;16.80;57.00;;;;;;5037520;28;89249;-45
2021/09/09 06:21:39;;;;;;;;;;;16.70;57.10;;;;;;5037412;28;87115;-44
2021/09/09 06:24:08;;;;;;;;;;;16.80;57.10;;;;;;5039557;28;87464;-45
2021/09/09 06:26:34;;;;;;;;;;;16.80;57.10;;;;;;5038700;28;87111;-45
2021/09/09 06:28:59;;;;;;;;;;;16.80;57.10;;;;;;5036996;28;89023;-45
2021/09/09 06:31:25;;;;;;;;;;;16.80;57.10;;;;;;5035344;28;88635;-44
2021/09/09 06:33:51;;;;;;;;;;;16.80;57.10;;;;;;5038676;28;88228;-45
2021/09/09 06:36:16;;;;;;;;;;;16.80;57.10;;;;;;5041255;28;87890;-46
2021/09/09 06:38:42;;;;;;;;;;;16.80;57.10;;;;;;5039803;28;89263;-44
2021/09/09 06:41:07;;;;;;;;;;;16.80;57.20;;;;;;5040001;28;87225;-45
2021/09/09 06:43:33;;;;;;;;;;;16.80;57.20;;;;;;5040269;28;87216;-45
2021/09/09 06:45:58;;;;;;;;;;;16.80;57.20;;;;;;5043363;28;88236;-45
2021/09/09 06:48:24;;;;;;;;;;;16.80;57.10;;;;;;5041329;28;89280;-44
2021/09/09 06:50:50;;;;;;;;;;;16.80;57.20;;;;;;5039988;28;89969;-45
2021/09/09 06:53:15;;;;;;;;;;;16.80;57.20;;;;;;5039771;28;87144;-46
2021/09/09 06:55:41;;;;;;;;;;;16.70;57.10;;;;;;5038398;28;88067;-45
2021/09/09 06:58:06;;;;;;;;;;;16.80;57.30;;;;;;5037178;28;87546;-45
2021/09/09 07:00:32;;;;;;;;;;;16.70;57.10;;;;;;5037507;28;87191;-45
2021/09/09 07:02:57;;;;;;;;;;;16.70;57.20;;;;;;5036871;28;87111;-44
2021/09/09 07:05:23;;;;;;;;;;;16.80;57.20;;;;;;5036801;28;88864;-47
2021/09/09 07:07:48;;;;;;;;;;;16.70;57.30;;;;;;5039545;28;87213;-45
2021/09/09 07:10:14;;;;;;;;;;;16.70;57.50;;;;;;5035861;28;88157;-45
2021/09/09 07:12:39;;;;;;;;;;;16.70;57.50;;;;;;5037006;28;86446;-45
2021/09/09 07:15:05;;;;;;;;;;;16.70;57.60;;;;;;5035860;28;88316;-45
2021/09/09 07:17:31;;;;;;;;;;;16.70;57.60;;;;;;5036038;28;87785;-44
2021/09/09 07:19:56;;;;;;;;;;;16.70;57.70;;;;;;5037012;28;88123;-44
2021/09/09 07:22:22;;;;;;;;;;;16.70;57.50;;;;;;5038837;28;90029;-45
2021/09/09 07:24:47;;;;;;;;;;;16.70;57.40;;;;;;5039768;28;87704;-45
2021/09/09 07:27:13;;;;;;;;;;;16.70;57.50;;;;;;5041949;28;87903;-45
2021/09/09 07:29:39;;;;;;;;;;;16.70;57.50;;;;;;5035457;28;89690;-44
2021/09/09 07:32:05;;;;;;;;;;;16.70;57.50;;;;;;5036344;28;87162;-45
2021/09/09 07:34:30;;;;;;;;;;;16.70;57.40;;;;;;5035542;28;88645;-46
2021/09/09 07:36:56;;;;;;;;;;;16.70;57.30;;;;;;5037008;28;86391;-45
2021/09/09 07:39:21;;;;;;;;;;;16.70;57.60;;;;;;5038136;28;87120;-44
2021/09/09 07:41:47;;;;;;;;;;;16.70;57.40;;;;;;5039484;28;87235;-44
2021/09/09 07:44:13;;;;;;;;;;;16.70;57.50;;;;;;5039121;28;88738;-44
2021/09/09 07:46:38;;;;;;;;;;;16.70;57.60;;;;;;5037875;28;88776;-44
2021/09/09 07:49:04;;;;;;;;;;;16.70;57.30;;;;;;5038266;28;87565;-44
2021/09/09 07:51:30;;;;;;;;;;;16.70;57.50;;;;;;5036030;28;87144;-45
2021/09/09 07:53:55;;;;;;;;;;;16.70;58.30;;;;;;5036283;28;87133;-46
2021/09/09 07:56:21;;;;;;;;;;;16.70;57.60;;;;;;5037233;28;87582;-45
2021/09/09 07:58:49;;;;;;;;;;;16.70;57.50;;;;;;5038147;28;87142;-44
2021/09/09 08:01:19;;;;;;;;;;;16.70;57.50;;;;;;5038183;28;87963;-45
2021/09/09 08:03:45;;;;;;;;;;;16.70;57.50;;;;;;5036657;28;87588;-44
2021/09/09 08:06:10;;;;;;;;;;;16.70;57.50;;;;;;5037624;28;87255;-44
2021/09/09 08:08:36;;;;;;;;;;;16.70;57.60;;;;;;5038108;28;89169;-44
2021/09/09 08:11:01;;;;;;;;;;;16.70;57.70;;;;;;5043824;27;88813;-45
2021/09/09 08:13:27;;;;;;;;;;;16.60;57.70;;;;;;5040090;28;89044;-45
2021/09/09 08:15:52;;;;;;;;;;;16.70;57.70;;;;;;5038741;28;87752;-44
2021/09/09 08:18:18;;;;;;;;;;;16.70;57.60;;;;;;5040285;28;87160;-45
2021/09/09 08:20:44;;;;;;;;;;;16.70;57.50;;;;;;5041360;28;87200;-45
2021/09/09 08:23:09;;;;;;;;;;;16.70;57.40;;;;;;5040847;28;90040;-45
2021/09/09 08:25:35;;;;;;;;;;;16.70;57.50;;;;;;5041936;28;86398;-45
2021/09/09 08:28:00;;;;;;;;;;;16.70;57.50;;;;;;5042382;28;87160;-45
2021/09/09 08:30:26;;;;;;;;;;;16.70;57.40;;;;;;5041870;28;88102;-44
2021/09/09 08:32:51;;;;;;;;;;;16.70;57.50;;;;;;5041442;28;89670;-45
2021/09/09 08:35:17;;;;;;;;;;;16.70;57.40;;;;;;5038872;28;88888;-44
2021/09/09 08:37:42;;;;;;;;;;;16.70;57.50;;;;;;5038500;28;87187;-44
2021/09/09 08:40:09;;;;;;;;;;;16.70;57.60;;;;;;5038126;28;88033;-45
2021/09/09 08:42:38;;;;;;;;;;;16.70;57.50;;;;;;5040112;28;89177;-44
2021/09/09 08:45:05;;;;;;;;;;;16.70;57.90;;;;;;5039179;28;87171;-44
2021/09/09 08:47:31;;;;;;;;;;;16.70;57.90;;;;;;5038652;28;88697;-45
2021/09/09 08:49:56;;;;;;;;;;;16.70;57.60;;;;;;5039583;28;86893;-44
2021/09/09 08:52:22;;;;;;;;;;;16.70;57.90;;;;;;5040619;28;87282;-44
2021/09/09 08:54:47;;;;;;;;;;;16.70;57.90;;;;;;5044469;28;87152;-45
2021/09/09 08:57:17;;;;;;;;;;;16.70;58.10;;;;;;5041220;28;88126;-45
2021/09/09 08:59:43;;;;;;;;;;;16.70;57.90;;;;;;5042724;28;88424;-44
2021/09/09 09:02:09;;;;;;;;;;;16.70;58.00;;;;;;5040812;28;87512;-45
2021/09/09 09:04:36;;;;;;;;;;;16.70;58.40;;;;;;5039358;28;88912;-44
2021/09/09 09:07:02;;;;;;;;;;;16.70;58.20;;;;;;5040804;28;88552;-45
2021/09/09 09:09:33;;;;;;;;;;;16.70;59.20;;;;;;5041689;27;89140;-45
2021/09/09 09:12:00;;;;;;;;;;;16.70;58.20;;;;;;5042184;28;87194;-45
2021/09/09 09:14:26;;;;;;;;;;;16.70;58.50;;;;;;5044938;28;89030;-45
2021/09/09 09:16:55;;;;;;;;;;;16.70;58.30;;;;;;5041041;28;87828;-45
2021/09/09 09:19:23;;;;;;;;;;;16.70;58.20;;;;;;5038379;28;88975;-46
2021/09/09 09:21:51;;;;;;;;;;;16.70;58.80;;;;;;5036392;28;90139;-44
2021/09/09 09:24:19;;;;;;;;;;;16.70;58.50;;;;;;5041559;28;87117;-44
2021/09/09 09:27:04;;;;;;;;;;;16.70;58.60;;;;;;5039288;28;87488;-45
2021/09/09 09:29:30;;;;;;;;;;;16.80;58.40;;;;;;5039944;28;89880;-44
2021/09/09 09:32:07;;;;;;;;;;;16.70;58.40;;;;;;5040873;28;87174;-45
2021/09/09 09:34:32;;;;;;;;;;;16.70;58.80;;;;;;5039148;28;88954;-44
2021/09/09 09:36:58;;;;;;;;;;;16.70;58.70;;;;;;5042970;28;87815;-44
2021/09/09 09:39:23;;;;;;;;;;;16.70;59.00;;;;;;5040838;28;87918;-45
2021/09/09 09:41:52;;;;;;;;;;;16.70;58.60;;;;;;5041088;28;87796;-44
2021/09/09 09:44:26;;;;;;;;;;;16.70;58.80;;;;;;5037598;28;87148;-44
2021/09/09 09:46:51;;;;;;;;;;;16.70;58.90;;;;;;5040188;28;88126;-44
2021/09/09 09:49:25;;;;;;;;;;;16.80;59.40;;;;;;5041337;28;90099;-45
2021/09/09 09:51:52;;;;;;;;;;;16.80;59.20;;;;;;5038851;28;87195;-44
2021/09/09 09:54:18;;;;;;;;;;;16.70;59.60;;;;;;5037034;28;88443;-44
2021/09/09 09:56:45;;;;;;;;;;;16.70;59.20;;;;;;5039832;28;88774;-44
2021/09/09 09:59:10;;;;;;;;;;;16.70;59.70;;;;;;5043080;28;88776;-44
2021/09/09 10:01:37;;;;;;;;;;;16.70;59.30;;;;;;5036898;28;88079;-44
2021/09/09 10:04:04;;;;;;;;;;;16.70;59.60;;;;;;5037626;28;86400;-44
2021/09/09 10:06:33;;;;;;;;;;;16.70;60.00;;;;;;5038213;28;88774;-44
2021/09/09 10:08:59;;;;;;;;;;;16.70;59.70;;;;;;5039159;28;88999;-44
2021/09/09 10:11:25;;;;;;;;;;;16.70;59.60;;;;;;5039001;28;88167;-44
2021/09/09 10:13:51;;;;;;;;;;;16.70;59.90;;;;;;5040352;28;89543;-44
2021/09/09 10:16:19;;;;;;;;;;;16.70;60.20;;;;;;5040612;28;89560;-44
2021/09/09 10:18:45;;;;;;;;;;;16.70;60.50;;;;;;5038261;28;87234;-44
2021/09/09 10:21:11;;;;;;;;;;;16.70;60.20;;;;;;5041540;28;87606;-45
2021/09/09 10:23:36;;;;;;;;;;;16.70;60.00;;;;;;5040112;28;87214;-45
2021/09/09 10:26:02;;;;;;;;;;;16.70;60.10;;;;;;5041260;28;88692;-45
2021/09/09 10:28:34;;;;;;;;;;;16.70;60.10;;;;;;5040663;28;86425;-44
2021/09/09 10:31:06;;;;;;;;;;;16.70;60.20;;;;;;5039841;28;87249;-45
2021/09/09 10:33:32;;;;;;;;;;;16.70;60.40;;;;;;5038763;28;87626;-44
2021/09/09 10:35:58;;;;;;;;;;;16.70;60.30;;;;;;5039844;28;88529;-44
2021/09/09 10:38:26;;;;;;;;;;;16.70;60.10;;;;;;5041018;28;87163;-44
2021/09/09 10:40:51;;;;;;;;;;;16.70;60.10;;;;;;5039076;28;89327;-45
2021/09/09 10:43:22;;;;;;;;;;;16.70;60.30;;;;;;5043021;28;87799;-45
2021/09/09 10:45:48;;;;;;;;;;;16.70;60.20;;;;;;5040184;28;87160;-46
2021/09/09 10:48:14;;;;;;;;;;;16.70;60.10;;;;;;5039653;28;87284;-44
2021/09/09 10:50:39;;;;;;;;;;;16.70;60.20;;;;;;5040634;28;88748;-44
2021/09/09 10:53:09;;;;;;;;;;;16.70;60.40;;;;;;5038339;28;87201;-44
2021/09/09 10:55:36;;;;;;;;;;;16.70;60.00;;;;;;5038025;28;87947;-44
2021/09/09 10:58:19;;;;;;;;;;;16.70;60.20;;;;;;5037803;28;89059;-44
2021/09/09 11:00:51;;;;;;;;;;;16.70;60.00;;;;;;5037978;28;89102;-44
2021/09/09 11:03:35;;;;;;;;;;;16.70;59.90;;;;;;5038703;28;89582;-45
2021/09/09 11:06:05;;;;;;;;;;;16.70;60.30;;;;;;5040536;27;87209;-44
2021/09/09 11:08:31;;;;;;;;;;;16.70;60.20;;;;;;5039921;28;88181;-44
2021/09/09 11:10:56;;;;;;;;;;;16.70;60.10;;;;;;5039425;28;87995;-45
2021/09/09 11:13:22;;;;;;;;;;;16.70;60.10;;;;;;5036508;28;87941;-44
2021/09/09 11:15:48;;;;;;;;;;;16.70;60.20;;;;;;5037696;28;88751;-44
2021/09/09 11:18:22;;;;;;;;;;;16.70;60.10;;;;;;5036500;28;86386;-45
2021/09/09 11:20:47;;;;;;;;;;;16.70;60.00;;;;;;5039551;28;87142;-44
2021/09/09 11:23:13;;;;;;;;;;;16.70;60.20;;;;;;5038959;28;89593;-44
2021/09/09 11:25:39;;;;;;;;;;;16.70;60.00;;;;;;5040803;28;88096;-44
2021/09/09 11:28:11;;;;;;;;;;;16.80;60.10;;;;;;5039161;28;89651;-44
2021/09/09 11:30:37;;;;;;;;;;;16.80;60.30;;;;;;5037552;28;87160;-44
2021/09/09 11:33:03;;;;;;;;;;;16.80;60.00;;;;;;5037933;28;88506;-44
2021/09/09 11:35:29;;;;;;;;;;;16.80;60.00;;;;;;5037655;28;87993;-44
2021/09/09 11:37:55;;;;;;;;;;;16.80;59.90;;;;;;5038401;28;87211;-44
2021/09/09 11:40:20;;;;;;;;;;;16.80;59.70;;;;;;5038707;28;89336;-45
2021/09/09 11:42:47;;;;;;;;;;;16.90;60.00;;;;;;5039687;28;87755;-45
2021/09/09 11:45:12;;;;;;;;;;;16.90;60.30;;;;;;5041577;27;87155;-44
2021/09/09 11:47:40;;;;;;;;;;;16.90;60.30;;;;;;5045866;28;87253;-45
2021/09/09 11:50:06;;;;;;;;;;;16.90;60.00;;;;;;5040849;28;88134;-44
2021/09/09 11:52:32;;;;;;;;;;;16.90;60.20;;;;;;5041682;28;89649;-44
2021/09/09 11:54:58;;;;;;;;;;;16.90;60.30;;;;;;5042146;28;89633;-45
2021/09/09 11:57:23;;;;;;;;;;;16.90;60.30;;;;;;5043475;28;87162;-44
2021/09/09 11:59:50;;;;;;;;;;;16.90;60.20;;;;;;5041262;28;87201;-44
2021/09/09 12:02:18;;;;;;;;;;;16.90;60.40;;;;;;5041677;28;88739;-44
2021/09/09 12:04:45;;;;;;;;;;;16.90;60.30;;;;;;5040588;28;87178;-45
2021/09/09 12:07:21;;;;;;;;;;;16.90;60.30;;;;;;5040552;28;89155;-44
2021/09/09 12:09:53;;;;;;;;;;;17.00;60.10;;;;;;5043626;28;87642;-45
2021/09/09 12:12:18;;;;;;;;;;;17.00;60.10;;;;;;5040324;28;88278;-45
2021/09/09 12:14:44;;;;;;;;;;;17.00;60.10;;;;;;5040668;28;89391;-45
2021/09/09 12:17:14;;;;;;;;;;;17.00;60.00;;;;;;5042644;28;87161;-44
2021/09/09 12:19:58;;;;;;;;;;;16.90;59.90;;;;;;5041995;28;88528;-45
2021/09/09 12:22:42;;;;;;;;;;;16.90;59.80;;;;;;5039656;27;89819;-44
2021/09/09 12:25:26;;;;;;;;;;;17.00;60.00;;;;;;5043278;28;87244;-46
2021/09/09 12:28:02;;;;;;;;;;;17.10;59.90;;;;;;5040263;28;87606;-45
2021/09/09 12:30:28;;;;;;;;;;;17.00;59.80;;;;;;5040154;28;88488;-45
2021/09/09 12:32:53;;;;;;;;;;;17.00;59.80;;;;;;5045102;28;86432;-45
2021/09/09 12:35:20;;;;;;;;;;;17.00;60.00;;;;;;5042489;28;89784;-45
2021/09/09 12:38:01;;;;;;;;;;;17.00;60.00;;;;;;5041970;28;87218;-44
2021/09/09 12:40:39;;;;;;;;;;;16.90;60.00;;;;;;5041061;28;88090;-44
2021/09/09 12:43:19;;;;;;;;;;;17.00;60.10;;;;;;5039664;28;88330;-45
2021/09/09 12:45:47;;;;;;;;;;;17.00;60.00;;;;;;5041572;28;87170;-45
2021/09/09 12:48:12;;;;;;;;;;;17.00;59.90;;;;;;5040453;28;87885;-45
2021/09/09 12:50:38;;;;;;;;;;;17.00;60.30;;;;;;5041286;28;87426;-45
2021/09/09 12:53:03;;;;;;;;;;;17.00;60.00;;;;;;5042508;28;87174;-45
2021/09/09 12:55:29;;;;;;;;;;;17.00;60.40;;;;;;5042698;28;88038;-45
2021/09/09 12:57:54;;;;;;;;;;;17.10;60.60;;;;;;5038032;28;86397;-45
2021/09/09 13:00:20;;;;;;;;;;;17.10;60.40;;;;;;5039475;28;88201;-44
2021/09/09 13:02:46;;;;;;;;;;;17.10;60.50;;;;;;5040179;28;89239;-44
2021/09/09 13:05:11;;;;;;;;;;;17.10;60.60;;;;;;5041354;28;88125;-44
2021/09/09 13:07:37;;;;;;;;;;;17.10;60.30;;;;;;5041133;28;89732;-45
2021/09/09 13:10:03;;;;;;;;;;;17.10;60.40;;;;;;5037534;28;89655;-44
2021/09/09 13:12:29;;;;;;;;;;;17.10;60.70;;;;;;5037815;28;88176;-44
2021/09/09 13:14:54;;;;;;;;;;;17.10;60.40;;;;;;5038657;28;87505;-44
2021/09/09 13:17:20;;;;;;;;;;;17.10;60.50;;;;;;5042218;28;89811;-45
2021/09/09 13:19:45;;;;;;;;;;;17.10;60.60;;;;;;5040891;28;87428;-45
2021/09/09 13:22:11;;;;;;;;;;;17.10;60.40;;;;;;5041190;28;87454;-45
2021/09/09 13:24:36;;;;;;;;;;;17.00;60.80;;;;;;5042123;28;87197;-45
2021/09/09 13:27:02;;;;;;;;;;;17.10;60.50;;;;;;5039903;28;88693;-44
2021/09/09 13:29:27;;;;;;;;;;;17.10;61.00;;;;;;5036625;28;88986;-45
2021/09/09 13:31:53;;;;;;;;;;;17.10;60.70;;;;;;5038677;28;87170;-44
2021/09/09 13:34:18;;;;;;;;;;;17.10;60.30;;;;;;5039769;28;87906;-45
2021/09/09 13:36:44;;;;;;;;;;;17.10;60.40;;;;;;5043739;28;88310;-44
2021/09/09 13:39:10;;;;;;;;;;;17.10;60.30;;;;;;5041367;28;88934;-45
2021/09/09 13:41:36;;;;;;;;;;;17.10;60.70;;;;;;5038282;28;88281;-45
2021/09/09 13:44:01;;;;;;;;;;;17.20;60.70;;;;;;5037176;28;87138;-45
2021/09/09 13:46:27;;;;;;;;;;;17.10;60.70;;;;;;5038655;28;86552;-45
2021/09/09 13:48:52;;;;;;;;;;;17.10;60.70;;;;;;5039017;28;88293;-45
2021/09/09 13:51:18;;;;;;;;;;;17.10;60.70;;;;;;5040672;28;87163;-45
2021/09/09 13:53:43;;;;;;;;;;;17.10;60.70;;;;;;5040087;28;88075;-45
2021/09/09 13:56:09;;;;;;;;;;;17.20;60.80;;;;;;5041462;28;87250;-45
2021/09/09 13:58:35;;;;;;;;;;;17.20;60.70;;;;;;5043291;28;87376;-44
2021/09/09 14:01:00;;;;;;;;;;;17.20;61.30;;;;;;5037924;28;88043;-45
2021/09/09 14:03:26;;;;;;;;;;;17.10;60.90;;;;;;5040882;28;88053;-45
2021/09/09 14:05:51;;;;;;;;;;;17.20;61.50;;;;;;5041435;28;88546;-44
2021/09/09 14:08:17;;;;;;;;;;;17.10;60.90;;;;;;5037490;28;88490;-45
2021/09/09 14:10:43;;;;;;;;;;;17.20;61.30;;;;;;5037795;28;86463;-44